sensor_id;sensor_type;location;lat;lon;timestamp;temperature;humidity
59067;DHT22;44854;50.838;4.438;2022-11-24T06:22:20;9.20;99.90
59067;DHT22;44854;50.838;4.438;2022-11-24T06:24:46;9.20;99.90
59067;DHT22;44854;50.838;4.438;2022-11-24T06:27:12;9.20;99.90
59067;DHT22;44854;50.838;4.438;2022-11-24T06:29:38;9.10;99.90
59067;DHT22;44854;50.838;4.438;2022-11-24T06:32:04;9.10;99.90
59067;DHT22;44854;50.838;4.438;2022-11-24T06:34:29;9.10;99.90
59067;DHT22;44854;50.838;4.438;2022-11-24T06:36:55;9.10;99.90
59067;DHT22;44854;50.838;4.438;2022-11-24T06:39:20;9.10;99.90
59067;DHT22;44854;50.838;4.438;2022-11-24T06:41:48;9.10;99.90
59067;DHT22;44854;50.838;4.438;2022-11-24T06:44:13;9.00;99.90
59067;DHT22;44854;50.838;4.438;2022-11-24T06:46:39;9.00;99.90
59067;DHT22;44854;50.838;4.438;2022-11-24T06:49:04;9.00;99.90
59067;DHT22;44854;50.838;4.438;2022-11-24T06:51:30;9.00;99.90
59067;DHT22;44854;50.838;4.438;2022-11-24T06:53:55;9.00;99.90
59067;DHT22;44854;50.838;4.438;2022-11-24T06:56:21;9.00;99.90
59067;DHT22;44854;50.838;4.438;2022-11-24T06:58:48;9.10;99.90
59067;DHT22;44854;50.838;4.438;2022-11-24T07:01:26;9.00;99.90
59067;DHT22;44854;50.838;4.438;2022-11-24T07:03:52;9.10;99.90
59067;DHT22;44854;50.838;4.438;2022-11-24T07:06:18;9.00;99.90
59067;DHT22;44854;50.838;4.438;2022-11-24T07:08:44;9.00;99.90
59067;DHT22;44854;50.838;4.438;2022-11-24T07:11:11;9.10;99.90
59067;DHT22;44854;50.838;4.438;2022-11-24T07:13:37;9.00;99.90
59067;DHT22;44854;50.838;4.438;2022-11-24T07:16:36;9.10;99.90
59067;DHT22;44854;50.838;4.438;2022-11-24T07:18:54;9.00;99.90
59067;DHT22;44854;50.838;4.438;2022-11-24T07:21:20;9.00;99.90
59067;DHT22;44854;50.838;4.438;2022-11-24T07:23:47;8.90;99.90
59067;DHT22;44854;50.838;4.438;2022-11-24T07:26:13;8.90;99.90
59067;DHT22;44854;50.838;4.438;2022-11-24T07:28:39;9.00;99.90
59067;DHT22;44854;50.838;4.438;2022-11-24T07:31:10;9.00;99.90
59067;DHT22;44854;50.838;4.438;2022-11-24T07:33:36;9.00;99.90
59067;DHT22;44854;50.838;4.438;2022-11-24T07:36:02;8.90;99.90
59067;DHT22;44854;50.838;4.438;2022-11-24T07:38:28;8.90;99.90
59067;DHT22;44854;50.838;4.438;2022-11-24T07:40:57;8.90;99.90
59067;DHT22;44854;50.838;4.438;2022-11-24T07:43:23;9.00;99.90
59067;DHT22;44854;50.838;4.438;2022-11-24T07:45:51;8.90;99.90
59067;DHT22;44854;50.838;4.438;2022-11-24T07:48:17;8.80;99.90
59067;DHT22;44854;50.838;4.438;2022-11-24T07:50:42;8.80;99.90
59067;DHT22;44854;50.838;4.438;2022-11-24T07:53:08;8.90;99.90
59067;DHT22;44854;50.838;4.438;2022-11-24T07:55:33;8.90;99.90
59067;DHT22;44854;50.838;4.438;2022-11-24T07:57:59;8.90;99.90
59067;DHT22;44854;50.838;4.438;2022-11-24T08:00:25;8.90;99.90
59067;DHT22;44854;50.838;4.438;2022-11-24T08:02:51;8.90;99.90
59067;DHT22;44854;50.838;4.438;2022-11-24T08:05:17;8.90;99.90
59067;DHT22;44854;50.838;4.438;2022-11-24T08:07:42;8.90;99.90
59067;DHT22;44854;50.838;4.438;2022-11-24T08:10:08;8.90;99.90
59067;DHT22;44854;50.838;4.438;2022-11-24T08:12:33;8.90;99.90
59067;DHT22;44854;50.838;4.438;2022-11-24T08:14:59;9.00;99.90
59067;DHT22;44854;50.838;4.438;2022-11-24T08:17:24;9.00;99.90
59067;DHT22;44854;50.838;4.438;2022-11-24T08:19:50;9.00;99.90
59067;DHT22;44854;50.838;4.438;2022-11-24T08:22:15;9.10;99.90
59067;DHT22;44854;50.838;4.438;2022-11-24T08:24:41;9.10;99.90
59067;DHT22;44854;50.838;4.438;2022-11-24T08:27:13;9.20;99.90
59067;DHT22;44854;50.838;4.438;2022-11-24T08:29:38;9.20;99.90
59067;DHT22;44854;50.838;4.438;2022-11-24T08:32:04;9.20;99.90
59067;DHT22;44854;50.838;4.438;2022-11-24T08:34:30;9.10;99.90
59067;DHT22;44854;50.838;4.438;2022-11-24T08:36:55;9.20;99.90
59067;DHT22;44854;50.838;4.438;2022-11-24T08:39:21;9.20;99.90
59067;DHT22;44854;50.838;4.438;2022-11-24T08:41:46;9.30;99.90
59067;DHT22;44854;50.838;4.438;2022-11-24T08:44:12;9.30;99.90
59067;DHT22;44854;50.838;4.438;2022-11-24T08:46:40;9.30;99.90
59067;DHT22;44854;50.838;4.438;2022-11-24T08:49:05;9.30;99.90
59067;DHT22;44854;50.838;4.438;2022-11-24T08:51:31;9.40;99.90
59067;DHT22;44854;50.838;4.438;2022-11-24T08:53:58;9.40;99.90
59067;DHT22;44854;50.838;4.438;2022-11-24T08:56:24;9.50;99.90
59067;DHT22;44854;50.838;4.438;2022-11-24T08:58:50;9.50;99.90
59067;DHT22;44854;50.838;4.438;2022-11-24T09:01:16;9.50;99.90
59067;DHT22;44854;50.838;4.438;2022-11-24T09:03:42;9.60;99.90
59067;DHT22;44854;50.838;4.438;2022-11-24T09:06:08;9.60;99.90
59067;DHT22;44854;50.838;4.438;2022-11-24T09:08:34;9.50;99.90
59067;DHT22;44854;50.838;4.438;2022-11-24T09:11:01;9.60;99.90
59067;DHT22;44854;50.838;4.438;2022-11-24T09:13:26;9.50;99.90
59067;DHT22;44854;50.838;4.438;2022-11-24T09:15:52;9.60;99.90
59067;DHT22;44854;50.838;4.438;2022-11-24T09:18:17;9.50;99.90
59067;DHT22;44854;50.838;4.438;2022-11-24T09:20:43;9.60;99.90
59067;DHT22;44854;50.838;4.438;2022-11-24T09:23:08;9.60;99.90
59067;DHT22;44854;50.838;4.438;2022-11-24T09:25:34;9.60;99.90
59067;DHT22;44854;50.838;4.438;2022-11-24T09:27:59;9.70;99.90
59067;DHT22;44854;50.838;4.438;2022-11-24T09:30:25;9.70;99.90
59067;DHT22;44854;50.838;4.438;2022-11-24T09:32:51;9.70;99.90
59067;DHT22;44854;50.838;4.438;2022-11-24T09:35:16;9.80;99.90
59067;DHT22;44854;50.838;4.438;2022-11-24T09:37:42;9.80;99.90
59067;DHT22;44854;50.838;4.438;2022-11-24T09:40:11;9.90;99.90
59067;DHT22;44854;50.838;4.438;2022-11-24T09:45:24;9.90;99.90
59067;DHT22;44854;50.838;4.438;2022-11-24T09:50:18;10.10;99.90
59067;DHT22;44854;50.838;4.438;2022-11-24T09:52:52;10.10;99.90
59067;DHT22;44854;50.838;4.438;2022-11-24T09:57:54;10.20;99.90
59067;DHT22;44854;50.838;4.438;2022-11-24T10:00:21;10.30;99.90
59067;DHT22;44854;50.838;4.438;2022-11-24T10:02:46;10.40;99.90
59067;DHT22;44854;50.838;4.438;2022-11-24T10:05:13;10.40;99.90
59067;DHT22;44854;50.838;4.438;2022-11-24T10:07:43;10.60;99.90
59067;DHT22;44854;50.838;4.438;2022-11-24T10:20:27;10.70;99.90
59067;DHT22;44854;50.838;4.438;2022-11-24T10:23:06;10.60;99.90
59067;DHT22;44854;50.838;4.438;2022-11-24T10:28:08;10.80;99.90
59067;DHT22;44854;50.838;4.438;2022-11-24T10:30:34;10.80;99.90
59067;DHT22;44854;50.838;4.438;2022-11-24T10:35:36;10.90;99.90
59067;DHT22;44854;50.838;4.438;2022-11-24T10:38:09;11.00;99.90
59067;DHT22;44854;50.838;4.438;2022-11-24T10:40:51;11.00;99.90
59067;DHT22;44854;50.838;4.438;2022-11-24T10:43:19;11.10;99.90
59067;DHT22;44854;50.838;4.438;2022-11-24T10:45:44;11.10;99.90
59067;DHT22;44854;50.838;4.438;2022-11-24T10:48:12;11.10;99.90
59067;DHT22;44854;50.838;4.438;2022-11-24T10:50:41;11.10;99.90
59067;DHT22;44854;50.838;4.438;2022-11-24T10:55:55;11.20;99.90
59067;DHT22;44854;50.838;4.438;2022-11-24T10:58:27;11.20;99.90
59067;DHT22;44854;50.838;4.438;2022-11-24T11:00:54;11.30;99.90
59067;DHT22;44854;50.838;4.438;2022-11-24T11:03:21;11.40;99.90
59067;DHT22;44854;50.838;4.438;2022-11-24T11:05:49;11.30;99.90
59067;DHT22;44854;50.838;4.438;2022-11-24T11:08:17;11.40;99.90
59067;DHT22;44854;50.838;4.438;2022-11-24T11:10:48;11.50;99.90
59067;DHT22;44854;50.838;4.438;2022-11-24T11:15:49;11.60;99.90
59067;DHT22;44854;50.838;4.438;2022-11-24T11:18:15;11.60;99.90
59067;DHT22;44854;50.838;4.438;2022-11-24T11:20:48;11.50;99.90
59067;DHT22;44854;50.838;4.438;2022-11-24T11:23:24;11.50;99.90
59067;DHT22;44854;50.838;4.438;2022-11-24T11:25:51;11.50;99.90
59067;DHT22;44854;50.838;4.438;2022-11-24T11:28:36;11.50;99.90
59067;DHT22;44854;50.838;4.438;2022-11-24T11:31:03;11.50;99.90
59067;DHT22;44854;50.838;4.438;2022-11-24T11:33:30;11.60;99.90
59067;DHT22;44854;50.838;4.438;2022-11-24T11:35:56;11.70;99.90
59067;DHT22;44854;50.838;4.438;2022-11-24T11:38:23;11.80;99.90
59067;DHT22;44854;50.838;4.438;2022-11-24T11:40:49;11.90;99.90
59067;DHT22;44854;50.838;4.438;2022-11-24T11:43:25;12.10;99.90
59067;DHT22;44854;50.838;4.438;2022-11-24T11:46:04;12.20;99.90
59067;DHT22;44854;50.838;4.438;2022-11-24T11:48:34;12.20;99.90
59067;DHT22;44854;50.838;4.438;2022-11-24T12:03:54;12.20;99.90
59067;DHT22;44854;50.838;4.438;2022-11-24T12:09:06;12.10;99.90
59067;DHT22;44854;50.838;4.438;2022-11-24T12:14:09;12.20;99.90
59067;DHT22;44854;50.838;4.438;2022-11-24T12:26:53;11.90;99.90
59067;DHT22;44854;50.838;4.438;2022-11-24T12:37:15;12.10;99.90
59067;DHT22;44854;50.838;4.438;2022-11-24T12:39:54;12.20;99.90
59067;DHT22;44854;50.838;4.438;2022-11-24T12:45:38;12.30;99.90
59067;DHT22;44854;50.838;4.438;2022-11-24T12:50:50;12.30;99.90
59067;DHT22;44854;50.838;4.438;2022-11-24T12:53:18;12.40;99.90
59067;DHT22;44854;50.838;4.438;2022-11-24T12:55:47;12.50;99.90
59067;DHT22;44854;50.838;4.438;2022-11-24T13:03:13;12.20;99.90
59067;DHT22;44854;50.838;4.438;2022-11-24T13:08:05;12.30;99.90
59067;DHT22;44854;50.838;4.438;2022-11-24T13:10:33;12.20;99.90
59067;DHT22;44854;50.838;4.438;2022-11-24T13:15:25;12.00;99.90
59067;DHT22;44854;50.838;4.438;2022-11-24T13:17:51;12.10;99.90
59067;DHT22;44854;50.838;4.438;2022-11-24T13:22:51;12.30;99.90
59067;DHT22;44854;50.838;4.438;2022-11-24T13:25:19;12.40;99.90
59067;DHT22;44854;50.838;4.438;2022-11-24T13:27:46;12.30;99.90
59067;DHT22;44854;50.838;4.438;2022-11-24T13:35:40;12.30;99.90
59067;DHT22;44854;50.838;4.438;2022-11-24T13:41:03;12.40;99.90
59067;DHT22;44854;50.838;4.438;2022-11-24T13:43:28;12.20;99.90
59067;DHT22;44854;50.838;4.438;2022-11-24T13:45:54;12.20;99.90
59067;DHT22;44854;50.838;4.438;2022-11-24T13:53:15;12.10;99.90
59067;DHT22;44854;50.838;4.438;2022-11-24T13:55:56;12.10;99.90
59067;DHT22;44854;50.838;4.438;2022-11-24T14:03:35;12.20;99.90
59067;DHT22;44854;50.838;4.438;2022-11-24T14:06:03;12.30;99.90
59067;DHT22;44854;50.838;4.438;2022-11-24T14:08:33;12.30;99.90
59067;DHT22;44854;50.838;4.438;2022-11-24T14:11:00;12.10;99.90
59067;DHT22;44854;50.838;4.438;2022-11-24T14:13:30;12.10;99.90
59067;DHT22;44854;50.838;4.438;2022-11-24T14:18:50;12.20;99.90
59067;DHT22;44854;50.838;4.438;2022-11-24T14:21:23;12.30;99.90
59067;DHT22;44854;50.838;4.438;2022-11-24T14:26:19;12.20;99.90
59067;DHT22;44854;50.838;4.438;2022-11-24T14:28:45;12.20;99.90
59067;DHT22;44854;50.838;4.438;2022-11-24T14:31:18;12.20;99.90
59067;DHT22;44854;50.838;4.438;2022-11-24T14:33:45;12.20;99.90
59067;DHT22;44854;50.838;4.438;2022-11-24T14:36:13;12.10;99.90
59067;DHT22;44854;50.838;4.438;2022-11-24T14:38:39;12.10;99.90
59067;DHT22;44854;50.838;4.438;2022-11-24T14:41:21;12.10;99.90
59067;DHT22;44854;50.838;4.438;2022-11-24T14:43:49;12.30;99.90
59067;DHT22;44854;50.838;4.438;2022-11-24T14:46:18;12.20;99.90
59067;DHT22;44854;50.838;4.438;2022-11-24T14:48:47;12.30;99.90
59067;DHT22;44854;50.838;4.438;2022-11-24T14:51:14;12.30;99.90
59067;DHT22;44854;50.838;4.438;2022-11-24T14:53:41;12.20;99.90
59067;DHT22;44854;50.838;4.438;2022-11-24T14:56:09;12.30;99.90
59067;DHT22;44854;50.838;4.438;2022-11-24T14:58:35;12.20;99.90
59067;DHT22;44854;50.838;4.438;2022-11-24T15:01:07;12.10;99.90
59067;DHT22;44854;50.838;4.438;2022-11-24T15:03:33;12.00;99.90
59067;DHT22;44854;50.838;4.438;2022-11-24T15:05:59;11.90;99.90
59067;DHT22;44854;50.838;4.438;2022-11-24T15:08:26;11.80;99.90
59067;DHT22;44854;50.838;4.438;2022-11-24T15:10:56;11.70;99.90
59067;DHT22;44854;50.838;4.438;2022-11-24T15:13:22;11.90;99.90
59067;DHT22;44854;50.838;4.438;2022-11-24T15:15:50;11.90;99.90
59067;DHT22;44854;50.838;4.438;2022-11-24T15:18:24;11.90;99.90
59067;DHT22;44854;50.838;4.438;2022-11-24T15:20:51;11.80;99.90
59067;DHT22;44854;50.838;4.438;2022-11-24T15:23:21;11.70;99.90
59067;DHT22;44854;50.838;4.438;2022-11-24T15:25:48;11.70;99.90
59067;DHT22;44854;50.838;4.438;2022-11-24T15:28:14;11.70;99.90
59067;DHT22;44854;50.838;4.438;2022-11-24T15:30:39;11.70;99.90
59067;DHT22;44854;50.838;4.438;2022-11-24T15:33:16;11.70;99.90
59067;DHT22;44854;50.838;4.438;2022-11-24T15:35:41;11.70;99.90
59067;DHT22;44854;50.838;4.438;2022-11-24T15:38:07;11.60;99.90
59067;DHT22;44854;50.838;4.438;2022-11-24T15:40:34;11.60;99.90
59067;DHT22;44854;50.838;4.438;2022-11-24T15:43:00;11.60;99.90
59067;DHT22;44854;50.838;4.438;2022-11-24T15:45:26;11.60;99.90
59067;DHT22;44854;50.838;4.438;2022-11-24T15:47:51;11.60;99.90
59067;DHT22;44854;50.838;4.438;2022-11-24T15:50:17;11.60;99.90
59067;DHT22;44854;50.838;4.438;2022-11-24T15:52:43;11.50;99.90
59067;DHT22;44854;50.838;4.438;2022-11-24T15:55:16;11.60;99.90
59067;DHT22;44854;50.838;4.438;2022-11-24T15:57:42;11.40;99.90
59067;DHT22;44854;50.838;4.438;2022-11-24T16:02:40;11.40;99.90
59067;DHT22;44854;50.838;4.438;2022-11-24T16:05:06;11.40;99.90
59067;DHT22;44854;50.838;4.438;2022-11-24T16:07:31;11.30;99.90
59067;DHT22;44854;50.838;4.438;2022-11-24T16:09:57;11.20;99.90
59067;DHT22;44854;50.838;4.438;2022-11-24T16:12:22;11.20;99.90
59067;DHT22;44854;50.838;4.438;2022-11-24T16:14:49;11.30;99.90
59067;DHT22;44854;50.838;4.438;2022-11-24T16:17:14;11.40;99.90
59067;DHT22;44854;50.838;4.438;2022-11-24T16:19:40;11.30;99.90
59067;DHT22;44854;50.838;4.438;2022-11-24T16:22:05;11.20;99.90
59067;DHT22;44854;50.838;4.438;2022-11-24T16:24:32;11.10;99.90
59067;DHT22;44854;50.838;4.438;2022-11-24T16:26:58;11.10;99.90
59067;DHT22;44854;50.838;4.438;2022-11-24T16:29:23;11.10;99.90
59067;DHT22;44854;50.838;4.438;2022-11-24T16:31:51;11.10;99.90
59067;DHT22;44854;50.838;4.438;2022-11-24T16:34:18;11.10;99.90
59067;DHT22;44854;50.838;4.438;2022-11-24T16:36:43;11.20;99.90
59067;DHT22;44854;50.838;4.438;2022-11-24T16:39:09;11.10;99.90
59067;DHT22;44854;50.838;4.438;2022-11-24T16:41:34;11.10;99.90
59067;DHT22;44854;50.838;4.438;2022-11-24T16:44:00;11.00;99.90
59067;DHT22;44854;50.838;4.438;2022-11-24T16:46:26;11.00;99.90
59067;DHT22;44854;50.838;4.438;2022-11-24T16:48:52;10.90;99.90
59067;DHT22;44854;50.838;4.438;2022-11-24T16:51:20;10.90;99.90
59067;DHT22;44854;50.838;4.438;2022-11-24T16:53:45;10.80;99.90
59067;DHT22;44854;50.838;4.438;2022-11-24T16:56:11;10.80;99.90
59067;DHT22;44854;50.838;4.438;2022-11-24T16:58:38;10.80;99.90
59067;DHT22;44854;50.838;4.438;2022-11-24T17:01:04;10.80;99.90
59067;DHT22;44854;50.838;4.438;2022-11-24T17:03:30;10.70;99.90
59067;DHT22;44854;50.838;4.438;2022-11-24T17:06:02;10.80;99.90
59067;DHT22;44854;50.838;4.438;2022-11-24T17:08:31;10.80;99.90
59067;DHT22;44854;50.838;4.438;2022-11-24T17:10:57;10.80;99.90
59067;DHT22;44854;50.838;4.438;2022-11-24T17:13:22;10.70;99.90
59067;DHT22;44854;50.838;4.438;2022-11-24T17:15:48;10.70;99.90
59067;DHT22;44854;50.838;4.438;2022-11-24T17:18:14;10.60;99.90
59067;DHT22;44854;50.838;4.438;2022-11-24T17:20:39;10.60;99.90
59067;DHT22;44854;50.838;4.438;2022-11-24T17:23:05;10.50;99.90
59067;DHT22;44854;50.838;4.438;2022-11-24T17:25:31;10.40;99.90
59067;DHT22;44854;50.838;4.438;2022-11-24T17:27:57;10.60;99.90
59067;DHT22;44854;50.838;4.438;2022-11-24T17:30:22;10.50;99.90
59067;DHT22;44854;50.838;4.438;2022-11-24T17:32:48;10.40;99.90
59067;DHT22;44854;50.838;4.438;2022-11-24T17:35:13;10.40;99.90
59067;DHT22;44854;50.838;4.438;2022-11-24T17:37:39;10.40;99.90
59067;DHT22;44854;50.838;4.438;2022-11-24T17:40:04;10.40;99.90
59067;DHT22;44854;50.838;4.438;2022-11-24T17:42:30;10.40;99.90
59067;DHT22;44854;50.838;4.438;2022-11-24T17:44:56;10.30;99.90
59067;DHT22;44854;50.838;4.438;2022-11-24T17:47:21;10.20;99.90
59067;DHT22;44854;50.838;4.438;2022-11-24T17:49:47;10.20;99.90
59067;DHT22;44854;50.838;4.438;2022-11-24T17:52:12;10.30;99.90
59067;DHT22;44854;50.838;4.438;2022-11-24T17:54:38;10.30;99.90
59067;DHT22;44854;50.838;4.438;2022-11-24T17:57:03;10.30;99.90
59067;DHT22;44854;50.838;4.438;2022-11-24T17:59:29;10.30;99.90
59067;DHT22;44854;50.838;4.438;2022-11-24T18:01:54;10.40;99.90
59067;DHT22;44854;50.838;4.438;2022-11-24T18:04:20;10.40;99.90
59067;DHT22;44854;50.838;4.438;2022-11-24T18:06:45;10.30;99.90
59067;DHT22;44854;50.838;4.438;2022-11-24T18:09:11;10.40;99.90
59067;DHT22;44854;50.838;4.438;2022-11-24T18:11:37;10.40;99.90
59067;DHT22;44854;50.838;4.438;2022-11-24T18:14:03;10.40;99.90
59067;DHT22;44854;50.838;4.438;2022-11-24T18:16:29;10.40;99.90
59067;DHT22;44854;50.838;4.438;2022-11-24T18:18:56;10.30;99.90
59067;DHT22;44854;50.838;4.438;2022-11-24T18:21:22;10.40;99.90
59067;DHT22;44854;50.838;4.438;2022-11-24T18:23:47;10.40;99.90
59067;DHT22;44854;50.838;4.438;2022-11-24T18:26:13;10.40;99.90
59067;DHT22;44854;50.838;4.438;2022-11-24T18:28:42;10.50;99.90
59067;DHT22;44854;50.838;4.438;2022-11-24T18:31:12;10.50;99.90
59067;DHT22;44854;50.838;4.438;2022-11-24T18:33:39;10.50;99.90
59067;DHT22;44854;50.838;4.438;2022-11-24T18:36:04;10.50;99.90
59067;DHT22;44854;50.838;4.438;2022-11-24T18:38:32;10.40;99.90
59067;DHT22;44854;50.838;4.438;2022-11-24T18:40:58;10.50;99.90
59067;DHT22;44854;50.838;4.438;2022-11-24T18:43:25;10.40;99.90
59067;DHT22;44854;50.838;4.438;2022-11-24T18:45:51;10.40;99.90
59067;DHT22;44854;50.838;4.438;2022-11-24T18:48:21;10.50;99.90
59067;DHT22;44854;50.838;4.438;2022-11-24T18:50:50;10.40;99.90
59067;DHT22;44854;50.838;4.438;2022-11-24T18:53:16;10.40;99.90
59067;DHT22;44854;50.838;4.438;2022-11-24T18:55:42;10.40;99.90
59067;DHT22;44854;50.838;4.438;2022-11-24T18:58:08;10.30;99.90
59067;DHT22;44854;50.838;4.438;2022-11-24T19:00:33;10.30;99.90
59067;DHT22;44854;50.838;4.438;2022-11-24T19:02:59;10.40;99.90
59067;DHT22;44854;50.838;4.438;2022-11-24T19:05:25;10.50;99.90
59067;DHT22;44854;50.838;4.438;2022-11-24T19:07:50;10.50;99.90
59067;DHT22;44854;50.838;4.438;2022-11-24T19:10:16;10.50;99.90
59067;DHT22;44854;50.838;4.438;2022-11-24T19:12:41;10.50;99.90
59067;DHT22;44854;50.838;4.438;2022-11-24T19:15:09;10.50;99.90
59067;DHT22;44854;50.838;4.438;2022-11-24T19:17:34;10.40;99.90
59067;DHT22;44854;50.838;4.438;2022-11-24T19:20:00;10.50;99.90
59067;DHT22;44854;50.838;4.438;2022-11-24T19:22:27;10.40;99.90
59067;DHT22;44854;50.838;4.438;2022-11-24T19:24:52;10.30;99.90
59067;DHT22;44854;50.838;4.438;2022-11-24T19:27:18;10.50;99.90
59067;DHT22;44854;50.838;4.438;2022-11-24T19:29:46;10.50;99.90
59067;DHT22;44854;50.838;4.438;2022-11-24T19:32:11;10.50;99.90
59067;DHT22;44854;50.838;4.438;2022-11-24T19:34:37;10.60;99.90
59067;DHT22;44854;50.838;4.438;2022-11-24T19:37:03;10.70;99.90
59067;DHT22;44854;50.838;4.438;2022-11-24T19:39:28;10.70;99.90
59067;DHT22;44854;50.838;4.438;2022-11-24T19:41:54;10.60;99.90
59067;DHT22;44854;50.838;4.438;2022-11-24T19:44:19;10.60;99.90
59067;DHT22;44854;50.838;4.438;2022-11-24T19:46:45;10.60;99.90
59067;DHT22;44854;50.838;4.438;2022-11-24T19:49:11;10.60;99.90
59067;DHT22;44854;50.838;4.438;2022-11-24T19:51:37;10.60;99.90
59067;DHT22;44854;50.838;4.438;2022-11-24T19:54:03;10.60;99.90
59067;DHT22;44854;50.838;4.438;2022-11-24T19:56:31;10.70;99.90
59067;DHT22;44854;50.838;4.438;2022-11-24T19:58:58;10.80;99.90
59067;DHT22;44854;50.838;4.438;2022-11-24T20:01:28;10.80;99.90
59067;DHT22;44854;50.838;4.438;2022-11-24T20:03:54;10.70;99.90
59067;DHT22;44854;50.838;4.438;2022-11-24T20:06:23;10.70;99.90
59067;DHT22;44854;50.838;4.438;2022-11-24T20:08:49;10.70;99.90
59067;DHT22;44854;50.838;4.438;2022-11-24T20:11:15;10.70;99.90
59067;DHT22;44854;50.838;4.438;2022-11-24T20:13:42;10.70;99.90
59067;DHT22;44854;50.838;4.438;2022-11-24T20:16:09;10.70;99.90
59067;DHT22;44854;50.838;4.438;2022-11-24T20:18:35;10.60;99.90
59067;DHT22;44854;50.838;4.438;2022-11-24T20:21:02;10.60;99.90
59067;DHT22;44854;50.838;4.438;2022-11-24T20:23:27;10.70;99.90
59067;DHT22;44854;50.838;4.438;2022-11-24T20:25:53;10.60;99.90
59067;DHT22;44854;50.838;4.438;2022-11-24T20:28:19;10.70;99.90
59067;DHT22;44854;50.838;4.438;2022-11-24T20:30:45;10.60;99.90
59067;DHT22;44854;50.838;4.438;2022-11-24T20:33:10;10.80;99.90
59067;DHT22;44854;50.838;4.438;2022-11-24T20:35:36;10.80;99.90
59067;DHT22;44854;50.838;4.438;2022-11-24T20:38:01;10.80;99.90
59067;DHT22;44854;50.838;4.438;2022-11-24T20:40:27;10.80;99.90
59067;DHT22;44854;50.838;4.438;2022-11-24T20:42:53;10.80;99.90
59067;DHT22;44854;50.838;4.438;2022-11-24T20:45:21;10.80;99.90
59067;DHT22;44854;50.838;4.438;2022-11-24T20:47:47;10.90;99.90
59067;DHT22;44854;50.838;4.438;2022-11-24T20:50:12;10.90;99.90
59067;DHT22;44854;50.838;4.438;2022-11-24T20:52:38;10.90;99.90
59067;DHT22;44854;50.838;4.438;2022-11-24T20:55:03;10.80;99.90
59067;DHT22;44854;50.838;4.438;2022-11-24T20:57:29;10.90;99.90
59067;DHT22;44854;50.838;4.438;2022-11-24T20:59:55;11.00;99.90
59067;DHT22;44854;50.838;4.438;2022-11-24T21:02:20;10.90;99.90
59067;DHT22;44854;50.838;4.438;2022-11-24T21:04:46;10.80;99.90
59067;DHT22;44854;50.838;4.438;2022-11-24T21:07:11;11.00;99.90
59067;DHT22;44854;50.838;4.438;2022-11-24T21:09:38;11.10;99.90
59067;DHT22;44854;50.838;4.438;2022-11-24T21:12:03;11.20;99.90
59067;DHT22;44854;50.838;4.438;2022-11-24T21:14:29;11.10;99.90
59067;DHT22;44854;50.838;4.438;2022-11-24T21:16:54;11.20;99.90
59067;DHT22;44854;50.838;4.438;2022-11-24T21:19:20;11.20;99.90
59067;DHT22;44854;50.838;4.438;2022-11-24T21:21:45;11.20;99.90
59067;DHT22;44854;50.838;4.438;2022-11-24T21:24:13;11.20;99.90
59067;DHT22;44854;50.838;4.438;2022-11-24T21:26:40;11.20;99.90
59067;DHT22;44854;50.838;4.438;2022-11-24T21:29:05;11.30;99.90
59067;DHT22;44854;50.838;4.438;2022-11-24T21:31:35;11.30;99.90
59067;DHT22;44854;50.838;4.438;2022-11-24T21:34:01;11.30;99.90
59067;DHT22;44854;50.838;4.438;2022-11-24T21:36:26;11.40;99.90
59067;DHT22;44854;50.838;4.438;2022-11-24T21:38:55;11.40;99.90
59067;DHT22;44854;50.838;4.438;2022-11-24T21:41:22;11.40;99.90
59067;DHT22;44854;50.838;4.438;2022-11-24T21:43:48;11.40;99.90
59067;DHT22;44854;50.838;4.438;2022-11-24T21:46:14;11.40;99.90
59067;DHT22;44854;50.838;4.438;2022-11-24T21:48:40;11.50;99.90
59067;DHT22;44854;50.838;4.438;2022-11-24T21:51:09;11.50;99.90
59067;DHT22;44854;50.838;4.438;2022-11-24T21:53:38;11.50;99.90
59067;DHT22;44854;50.838;4.438;2022-11-24T21:56:05;11.50;99.90
59067;DHT22;44854;50.838;4.438;2022-11-24T21:58:32;11.60;99.90
59067;DHT22;44854;50.838;4.438;2022-11-24T22:01:04;11.70;99.90
59067;DHT22;44854;50.838;4.438;2022-11-24T22:03:30;11.70;99.90
59067;DHT22;44854;50.838;4.438;2022-11-24T22:05:56;11.70;99.90
59067;DHT22;44854;50.838;4.438;2022-11-24T22:08:22;11.80;99.90
59067;DHT22;44854;50.838;4.438;2022-11-24T22:10:48;11.70;99.90
59067;DHT22;44854;50.838;4.438;2022-11-24T22:13:14;11.80;99.90
59067;DHT22;44854;50.838;4.438;2022-11-24T22:15:40;11.80;99.90
59067;DHT22;44854;50.838;4.438;2022-11-24T22:18:05;11.70;99.90
59067;DHT22;44854;50.838;4.438;2022-11-24T22:20:31;11.70;99.90
59067;DHT22;44854;50.838;4.438;2022-11-24T22:22:56;11.80;99.90
59067;DHT22;44854;50.838;4.438;2022-11-24T22:25:22;11.80;99.90
59067;DHT22;44854;50.838;4.438;2022-11-24T22:27:47;11.80;99.90
59067;DHT22;44854;50.838;4.438;2022-11-24T22:30:13;11.80;99.90
59067;DHT22;44854;50.838;4.438;2022-11-24T22:32:39;11.80;99.90
59067;DHT22;44854;50.838;4.438;2022-11-24T22:35:04;11.80;99.90
59067;DHT22;44854;50.838;4.438;2022-11-24T22:37:30;11.80;99.90
59067;DHT22;44854;50.838;4.438;2022-11-24T22:39:56;11.80;99.90
59067;DHT22;44854;50.838;4.438;2022-11-24T22:42:21;11.70;99.90
59067;DHT22;44854;50.838;4.438;2022-11-24T22:44:47;11.80;99.90
59067;DHT22;44854;50.838;4.438;2022-11-24T22:47:12;11.90;99.90
59067;DHT22;44854;50.838;4.438;2022-11-24T22:49:38;11.90;99.90
59067;DHT22;44854;50.838;4.438;2022-11-24T22:52:03;11.90;99.90
59067;DHT22;44854;50.838;4.438;2022-11-24T22:54:29;11.90;99.90
59067;DHT22;44854;50.838;4.438;2022-11-24T22:56:54;11.90;99.90
59067;DHT22;44854;50.838;4.438;2022-11-24T22:59:20;11.90;99.90
59067;DHT22;44854;50.838;4.438;2022-11-24T23:01:45;11.90;99.90
59067;DHT22;44854;50.838;4.438;2022-11-24T23:04:11;11.90;99.90
59067;DHT22;44854;50.838;4.438;2022-11-24T23:06:36;11.90;99.90
59067;DHT22;44854;50.838;4.438;2022-11-24T23:09:02;11.90;99.90
59067;DHT22;44854;50.838;4.438;2022-11-24T23:11:29;12.00;99.90
59067;DHT22;44854;50.838;4.438;2022-11-24T23:13:56;12.10;99.90
59067;DHT22;44854;50.838;4.438;2022-11-24T23:16:21;12.00;99.90
59067;DHT22;44854;50.838;4.438;2022-11-24T23:18:49;12.00;99.90
